createdAt,value
2019-03-21T00:00:27.937Z,9.36
2019-03-21T00:02:56.365Z,9.37
2019-03-21T00:05:26.830Z,9.45
2019-03-21T00:07:55.220Z,9.48
2019-03-21T00:10:35.023Z,9.46
2019-03-21T00:13:04.487Z,9.46
2019-03-21T00:15:44.970Z,9.51
2019-03-21T00:18:15.719Z,9.57
2019-03-21T00:20:44.208Z,9.52
2019-03-21T00:23:12.619Z,9.46
2019-03-21T00:25:41.032Z,9.48
2019-03-21T00:28:09.507Z,9.46
2019-03-21T00:30:37.901Z,9.52
2019-03-21T00:33:06.318Z,9.47
2019-03-21T00:35:34.725Z,9.43
2019-03-21T00:38:03.150Z,9.46
2019-03-21T00:40:34.439Z,9.43
2019-03-21T00:43:05.731Z,9.47
2019-03-21T00:45:35.242Z,9.44
2019-03-21T00:48:05.626Z,9.55
2019-03-21T00:50:34.026Z,9.47
2019-03-21T00:53:02.441Z,9.40
2019-03-21T00:55:33.929Z,9.47
2019-03-21T00:58:02.325Z,9.46
2019-03-21T01:00:35.043Z,9.52
2019-03-21T01:03:08.033Z,9.54
2019-03-21T01:05:36.477Z,9.51
2019-03-21T01:08:08.711Z,9.48
2019-03-21T01:10:37.109Z,9.48
2019-03-21T01:13:05.627Z,9.49
2019-03-21T01:15:35.713Z,9.48
2019-03-21T01:18:04.291Z,9.45
2019-03-21T01:20:32.718Z,9.54
2019-03-21T01:23:01.588Z,9.54
2019-03-21T01:25:36.197Z,9.53
2019-03-21T01:28:04.607Z,9.49
2019-03-21T01:30:33.150Z,9.46
2019-03-21T01:33:05.817Z,9.53
2019-03-21T01:35:34.629Z,9.58
2019-03-21T01:38:03.370Z,9.53
2019-03-21T01:40:34.858Z,9.48
2019-03-21T01:43:03.261Z,9.53
2019-03-21T01:45:31.672Z,9.43
2019-03-21T01:48:02.856Z,9.49
2019-03-21T01:50:33.699Z,9.46
2019-03-21T01:53:02.203Z,9.52
2019-03-21T01:55:31.705Z,9.52
2019-03-21T01:58:01.237Z,9.49
2019-03-21T02:00:40.775Z,9.52
2019-03-21T02:03:09.167Z,9.56
2019-03-21T02:05:37.568Z,9.53
2019-03-21T02:08:06.218Z,9.53
2019-03-21T02:10:35.647Z,9.48
2019-03-21T02:13:04.046Z,9.38
2019-03-21T02:15:32.460Z,9.46
2019-03-21T02:18:00.921Z,9.45
2019-03-21T02:20:29.396Z,9.41
2019-03-21T02:22:57.797Z,9.45
2019-03-21T02:25:34.227Z,9.49
2019-03-21T02:28:06.443Z,9.53
2019-03-21T02:30:39.671Z,9.45
2019-03-21T02:33:23.199Z,9.45
2019-03-21T02:35:51.618Z,9.48
2019-03-21T02:38:20.705Z,9.51
2019-03-21T02:40:51.815Z,8.90
2019-03-21T02:43:20.672Z,9.38
2019-03-21T02:45:49.359Z,9.45
2019-03-21T02:48:17.944Z,9.49
2019-03-21T02:50:46.430Z,9.45
2019-03-21T02:53:15.925Z,9.45
2019-03-21T02:55:45.119Z,9.43
2019-03-21T02:58:13.551Z,9.50
2019-03-21T03:00:44.039Z,9.56
2019-03-21T03:03:12.446Z,9.50
2019-03-21T03:05:40.874Z,9.39
2019-03-21T03:08:10.132Z,9.41
2019-03-21T03:10:54.259Z,9.44
2019-03-21T03:13:26.655Z,9.42
2019-03-21T03:15:53.856Z,9.47
2019-03-21T03:18:23.924Z,9.48
2019-03-21T03:20:55.365Z,9.43
2019-03-21T03:23:23.798Z,9.43
2019-03-21T03:25:52.318Z,9.41
2019-03-21T03:28:28.867Z,9.43
2019-03-21T03:30:59.570Z,9.44
2019-03-21T03:33:28.442Z,9.41
2019-03-21T03:35:56.854Z,9.44
2019-03-21T03:38:25.287Z,9.44
2019-03-21T03:41:05.406Z,9.39
2019-03-21T03:43:33.862Z,9.31
2019-03-21T03:46:02.263Z,9.42
2019-03-21T03:48:30.730Z,9.45
2019-03-21T03:50:59.222Z,9.42
2019-03-21T03:53:27.644Z,9.43
2019-03-21T03:55:56.048Z,9.39
2019-03-21T03:58:29.320Z,9.33
2019-03-21T04:00:58.669Z,9.29
2019-03-21T04:03:28.196Z,9.30
2019-03-21T04:05:56.953Z,9.33
2019-03-21T04:08:25.389Z,9.25
2019-03-21T04:10:58.533Z,9.28
2019-03-21T04:13:27.004Z,9.29
2019-03-21T04:15:56.380Z,9.36
2019-03-21T04:18:26.623Z,9.33
2019-03-21T04:21:01.072Z,9.40
2019-03-21T04:23:30.400Z,9.37
2019-03-21T04:26:09.077Z,9.39
2019-03-21T04:28:37.652Z,9.38
2019-03-21T04:31:06.042Z,9.31
2019-03-21T04:33:34.447Z,9.33
2019-03-21T04:36:02.870Z,9.38
2019-03-21T04:38:33.430Z,9.33
2019-03-21T04:41:02.927Z,9.43
2019-03-21T04:43:31.326Z,9.50
2019-03-21T04:46:03.741Z,9.44
2019-03-21T04:48:29.888Z,9.46
2019-03-21T04:50:58.284Z,9.46
2019-03-21T04:53:30.276Z,9.44
2019-03-21T04:55:57.912Z,9.45
2019-03-21T04:58:26.353Z,9.47
2019-03-21T05:00:56.614Z,9.43
2019-03-21T05:03:29.689Z,9.42
2019-03-21T05:05:59.166Z,9.43
2019-03-21T05:08:27.581Z,9.41
2019-03-21T05:10:55.977Z,9.40
2019-03-21T05:13:24.372Z,9.43
2019-03-21T05:15:56.923Z,9.48
2019-03-21T05:18:39.875Z,9.47
2019-03-21T05:21:11.394Z,9.50
2019-03-21T05:23:39.802Z,9.50
2019-03-21T05:26:08.221Z,9.47
2019-03-21T05:28:36.634Z,9.49
2019-03-21T05:31:17.270Z,9.46
2019-03-21T05:33:45.686Z,9.48
2019-03-21T05:36:14.082Z,9.49
2019-03-21T05:38:46.394Z,9.52
2019-03-21T05:41:27.203Z,9.46
2019-03-21T05:44:04.530Z,9.46
2019-03-21T05:46:33.391Z,9.60
2019-03-21T05:49:01.784Z,9.58
2019-03-21T05:51:30.200Z,9.59
2019-03-21T05:53:58.627Z,9.54
2019-03-21T05:56:27.044Z,9.51
2019-03-21T05:58:56.476Z,9.49
2019-03-21T06:01:24.954Z,9.56
2019-03-21T06:03:53.624Z,9.57
2019-03-21T06:06:46.714Z,9.58
2019-03-21T06:09:18.431Z,9.59
2019-03-21T06:11:50.122Z,9.61
2019-03-21T06:14:18.507Z,9.58
2019-03-21T06:16:46.907Z,9.62
2019-03-21T06:19:30.455Z,9.67
2019-03-21T06:22:26.103Z,9.71
2019-03-21T06:24:57.592Z,9.68
2019-03-21T06:27:30.813Z,9.69
2019-03-21T06:29:59.427Z,9.79
2019-03-21T06:32:30.987Z,9.78
2019-03-21T06:35:00.385Z,9.80
2019-03-21T06:37:29.180Z,9.85
2019-03-21T06:39:57.661Z,9.80
2019-03-21T06:42:29.907Z,9.80
2019-03-21T06:44:57.563Z,9.76
2019-03-21T06:47:25.969Z,9.87
2019-03-21T06:49:58.084Z,9.85
2019-03-21T06:52:26.513Z,9.89
2019-03-21T06:54:54.945Z,9.87
2019-03-21T06:57:23.381Z,9.99
2019-03-21T06:59:51.784Z,9.98
2019-03-21T07:02:20.196Z,10.01
2019-03-21T07:04:48.623Z,10.01
2019-03-21T07:07:17.040Z,10.10
2019-03-21T07:09:45.521Z,10.15
2019-03-21T07:12:13.937Z,10.17
2019-03-21T07:14:42.332Z,10.17
2019-03-21T07:17:10.747Z,10.20
2019-03-21T07:19:39.159Z,10.26
2019-03-21T07:22:08.267Z,10.33
2019-03-21T07:24:37.701Z,10.34
2019-03-21T07:27:08.839Z,10.22
2019-03-21T07:29:37.253Z,10.25
2019-03-21T07:32:05.681Z,10.36
2019-03-21T07:34:34.097Z,10.43
2019-03-21T07:37:02.698Z,10.43
2019-03-21T07:39:31.586Z,10.52
2019-03-21T07:42:01.333Z,10.57
2019-03-21T07:44:32.759Z,10.58
2019-03-21T07:47:12.264Z,10.69
2019-03-21T07:49:33.386Z,10.66
2019-03-21T07:52:05.597Z,10.67
2019-03-21T07:54:33.986Z,10.67
2019-03-21T07:57:02.408Z,10.67
2019-03-21T07:59:30.837Z,10.67
2019-03-21T08:01:59.247Z,10.76
2019-03-21T08:04:28.645Z,10.69
2019-03-21T08:07:06.077Z,10.77
2019-03-21T08:09:34.595Z,10.77
2019-03-21T08:12:03.061Z,10.76
2019-03-21T08:14:31.495Z,10.88
2019-03-21T08:16:59.900Z,10.89
2019-03-21T08:19:28.335Z,10.98
2019-03-21T08:21:56.734Z,11.04
2019-03-21T08:24:25.169Z,10.92
2019-03-21T08:26:54.645Z,10.95
2019-03-21T08:29:23.052Z,11.06
2019-03-21T08:31:51.513Z,11.13
2019-03-21T08:34:19.926Z,11.18
2019-03-21T08:36:48.309Z,11.19
2019-03-21T08:39:16.727Z,11.13
2019-03-21T08:41:45.118Z,11.23
2019-03-21T08:44:14.039Z,11.23
2019-03-21T08:46:42.439Z,11.23
2019-03-21T08:49:24.931Z,11.23
2019-03-21T08:51:53.388Z,11.23
2019-03-21T08:54:21.867Z,11.23
2019-03-21T08:56:50.324Z,11.26
2019-03-21T08:59:20.851Z,11.22
2019-03-21T09:01:49.304Z,10.09
2019-03-21T09:04:20.603Z,11.16
2019-03-21T09:06:49.022Z,11.16
2019-03-21T09:09:53.550Z,11.16
2019-03-21T09:12:21.949Z,11.16
2019-03-21T09:15:09.894Z,11.16
2019-03-21T09:17:38.280Z,11.16
2019-03-21T09:20:09.958Z,10.50
2019-03-21T09:22:38.376Z,10.39
2019-03-21T09:25:07.542Z,10.36
2019-03-21T09:27:36.012Z,10.41
2019-03-21T09:30:10.534Z,10.28
2019-03-21T09:32:38.940Z,10.27
2019-03-21T09:35:26.557Z,10.34
2019-03-21T09:37:54.975Z,10.34
2019-03-21T09:40:23.433Z,10.36
2019-03-21T09:42:52.906Z,10.27
2019-03-21T09:45:22.310Z,10.26
2019-03-21T09:47:52.407Z,10.10
2019-03-21T09:50:29.051Z,10.12
2019-03-21T09:52:58.480Z,10.18
2019-03-21T09:55:26.952Z,10.28
2019-03-21T09:57:55.413Z,10.28
2019-03-21T10:00:32.856Z,10.35
2019-03-21T10:03:01.405Z,10.35
2019-03-21T10:06:22.941Z,10.29
2019-03-21T10:08:51.365Z,10.29
2019-03-21T10:11:19.788Z,10.12
2019-03-21T10:13:52.015Z,10.25
2019-03-21T10:16:32.930Z,10.21
2019-03-21T10:19:01.325Z,10.21
2019-03-21T10:21:29.754Z,10.17
2019-03-21T10:24:00.885Z,10.25
2019-03-21T10:26:29.285Z,10.23
2019-03-21T10:28:57.706Z,10.30
2019-03-21T10:31:26.127Z,10.42
2019-03-21T10:34:41.255Z,10.49
2019-03-21T10:37:10.038Z,10.49
2019-03-21T10:39:38.440Z,10.60
2019-03-21T10:42:06.847Z,10.62
2019-03-21T10:44:35.238Z,10.67
2019-03-21T10:47:03.733Z,10.57
2019-03-21T10:50:32.761Z,10.65
2019-03-21T10:53:01.205Z,10.65
2019-03-21T10:55:29.678Z,10.85
2019-03-21T10:58:00.471Z,10.85
2019-03-21T11:00:54.812Z,10.85
2019-03-21T11:03:23.207Z,10.85
2019-03-21T11:05:56.561Z,10.95
2019-03-21T11:09:33.569Z,10.95
2019-03-21T11:13:54.846Z,10.95
2019-03-21T11:16:23.252Z,10.95
2019-03-21T11:18:54.368Z,11.20
2019-03-21T11:21:22.785Z,11.20
2019-03-21T11:23:51.332Z,11.40
2019-03-21T11:26:22.612Z,11.54
2019-03-21T11:28:51.013Z,11.39
2019-03-21T11:32:07.891Z,11.44
2019-03-21T11:34:36.349Z,11.44
2019-03-21T11:38:43.264Z,11.44
2019-03-21T11:41:12.712Z,11.44
2019-03-21T11:44:55.075Z,11.59
2019-03-21T11:47:23.487Z,11.59
2019-03-21T11:50:52.618Z,11.93
2019-03-21T11:53:21.027Z,11.93
2019-03-21T11:56:59.923Z,11.91
2019-03-21T11:59:50.495Z,11.91
2019-03-21T12:02:11.573Z,11.91
2019-03-21T12:05:58.225Z,11.91
2019-03-21T12:08:41.561Z,11.91
2019-03-21T12:11:10.017Z,11.91
2019-03-21T12:13:38.426Z,12.42
2019-03-21T12:16:06.810Z,12.45
2019-03-21T12:18:37.228Z,12.59
2019-03-21T12:21:05.637Z,12.51
2019-03-21T12:23:34.050Z,12.63
2019-03-21T12:26:02.493Z,12.90
2019-03-21T12:28:32.065Z,12.83
2019-03-21T12:31:00.458Z,12.90
2019-03-21T12:33:29.295Z,12.94
2019-03-21T12:35:57.709Z,13.07
2019-03-21T12:38:26.129Z,13.19
2019-03-21T12:41:00.652Z,13.02
2019-03-21T12:43:28.439Z,13.12
2019-03-21T12:45:56.867Z,13.33
2019-03-21T12:48:28.912Z,13.30
2019-03-21T12:50:57.334Z,13.24
2019-03-21T12:53:28.528Z,13.25
2019-03-21T12:55:56.948Z,13.37
2019-03-21T12:58:28.155Z,13.48
2019-03-21T13:00:57.675Z,13.59
2019-03-21T13:03:26.523Z,13.70
2019-03-21T13:05:54.947Z,13.73
2019-03-21T13:08:34.555Z,13.93
2019-03-21T13:11:02.964Z,14.00
2019-03-21T13:13:32.480Z,14.18
2019-03-21T13:16:00.818Z,14.06
2019-03-21T13:18:33.326Z,13.88
2019-03-21T13:21:01.782Z,14.04
2019-03-21T13:23:30.195Z,13.97
2019-03-21T13:25:58.640Z,14.11
2019-03-21T13:28:28.859Z,13.97
2019-03-21T13:30:57.280Z,13.81
2019-03-21T13:33:25.696Z,13.96
2019-03-21T13:35:54.097Z,14.06
2019-03-21T13:38:22.549Z,14.13
2019-03-21T13:40:50.979Z,13.96
2019-03-21T13:43:19.361Z,14.11
2019-03-21T13:45:48.050Z,13.98
2019-03-21T13:48:16.443Z,14.00
2019-03-21T13:50:46.965Z,13.92
2019-03-21T13:53:19.172Z,13.87
2019-03-21T13:55:47.627Z,13.80
2019-03-21T13:58:16.059Z,13.80
2019-03-21T14:00:44.513Z,13.57
2019-03-21T14:03:24.381Z,13.56
2019-03-21T14:05:43.100Z,13.63
2019-03-21T14:08:11.488Z,13.66
2019-03-21T14:10:39.907Z,13.67
2019-03-21T14:13:09.406Z,13.70
2019-03-21T14:15:37.796Z,13.79
2019-03-21T14:18:06.255Z,13.73
2019-03-21T14:20:35.363Z,13.84
2019-03-21T14:23:03.770Z,13.83
2019-03-21T14:25:32.361Z,13.66
2019-03-21T14:28:00.772Z,13.60
2019-03-21T14:30:33.077Z,13.60
2019-03-21T14:33:05.248Z,13.57
2019-03-21T14:35:33.685Z,13.55
2019-03-21T14:38:02.120Z,13.51
2019-03-21T14:40:30.541Z,13.42
2019-03-21T14:42:58.942Z,13.24
2019-03-21T14:45:27.386Z,13.27
2019-03-21T14:47:55.790Z,13.26
2019-03-21T14:50:24.245Z,13.24
2019-03-21T14:52:52.664Z,13.03
2019-03-21T14:55:23.517Z,13.10
2019-03-21T14:57:51.947Z,12.97
2019-03-21T15:00:21.499Z,12.93
2019-03-21T15:02:49.911Z,12.90
2019-03-21T15:05:20.818Z,12.98
2019-03-21T15:07:53.074Z,13.06
2019-03-21T15:10:21.567Z,12.88
2019-03-21T15:12:49.966Z,12.93
2019-03-21T15:15:18.424Z,12.93
2019-03-21T15:17:47.794Z,12.91
2019-03-21T15:20:19.396Z,12.85
2019-03-21T15:22:50.327Z,12.86
2019-03-21T15:25:18.731Z,12.91
2019-03-21T15:27:48.227Z,12.92
2019-03-21T15:30:19.017Z,13.04
2019-03-21T15:32:51.867Z,12.94
2019-03-21T15:35:21.496Z,12.80
2019-03-21T15:37:49.885Z,12.81
2019-03-21T15:40:23.505Z,12.83
2019-03-21T15:42:51.907Z,12.89
2019-03-21T15:45:23.186Z,12.72
2019-03-21T15:47:50.467Z,12.74
2019-03-21T15:50:37.749Z,12.62
2019-03-21T15:53:10.127Z,12.67
2019-03-21T15:55:39.464Z,12.38
2019-03-21T15:58:07.863Z,12.22
2019-03-21T16:00:39.327Z,12.17
2019-03-21T16:03:14.965Z,12.17
2019-03-21T16:05:42.825Z,12.14
2019-03-21T16:08:11.224Z,12.13
2019-03-21T16:10:42.445Z,12.10
2019-03-21T16:13:10.870Z,12.14
2019-03-21T16:15:40.306Z,12.10
2019-03-21T16:18:11.034Z,12.05
2019-03-21T16:20:39.512Z,12.00
2019-03-21T16:23:07.943Z,11.82
2019-03-21T16:25:36.396Z,11.84
2019-03-21T16:28:07.095Z,11.84
2019-03-21T16:30:35.142Z,11.72
2019-03-21T16:33:03.485Z,11.64
2019-03-21T16:35:32.881Z,11.67
2019-03-21T16:38:01.288Z,11.61
2019-03-21T16:40:29.879Z,11.63
2019-03-21T16:42:59.361Z,11.52
2019-03-21T16:45:27.774Z,11.38
2019-03-21T16:48:00.192Z,11.42
2019-03-21T16:50:29.585Z,11.37
2019-03-21T16:52:58.191Z,11.26
2019-03-21T16:55:26.615Z,11.20
2019-03-21T16:57:55.036Z,11.15
2019-03-21T17:00:23.515Z,11.16
2019-03-21T17:02:51.906Z,11.18
2019-03-21T17:05:22.292Z,11.15
2019-03-21T17:07:54.474Z,11.15
2019-03-21T17:10:22.371Z,11.10
2019-03-21T17:12:50.807Z,11.09
2019-03-21T17:15:19.195Z,11.13
2019-03-21T17:17:50.161Z,11.13
2019-03-21T17:20:21.436Z,11.10
2019-03-21T17:22:49.883Z,11.10
2019-03-21T17:25:18.363Z,10.96
2019-03-21T17:27:50.378Z,11.08
2019-03-21T17:30:22.385Z,11.08
2019-03-21T17:32:50.848Z,11.06
2019-03-21T17:35:19.237Z,11.00
2019-03-21T17:37:47.630Z,10.95
2019-03-21T17:40:17.038Z,10.95
2019-03-21T17:42:45.452Z,11.00
2019-03-21T17:45:16.209Z,10.93
2019-03-21T17:47:44.883Z,10.86
2019-03-21T17:50:15.729Z,10.91
2019-03-21T17:52:44.388Z,10.91
2019-03-21T17:55:13.208Z,10.93
2019-03-21T17:57:42.581Z,10.85
2019-03-21T18:00:25.775Z,10.82
2019-03-21T18:02:54.390Z,10.84
2019-03-21T18:05:22.873Z,10.91
2019-03-21T18:07:51.525Z,10.80
2019-03-21T18:10:25.900Z,10.80
2019-03-21T18:12:54.326Z,10.84
2019-03-21T18:15:22.746Z,10.70
2019-03-21T18:17:51.184Z,10.83
2019-03-21T18:20:19.855Z,10.76
2019-03-21T18:22:48.351Z,10.72
2019-03-21T18:25:16.776Z,10.76
2019-03-21T18:27:45.201Z,10.75
2019-03-21T18:30:14.046Z,10.69
2019-03-21T18:32:42.471Z,10.75
2019-03-21T18:35:12.770Z,10.75
2019-03-21T18:37:41.178Z,10.70
2019-03-21T18:40:12.146Z,10.73
2019-03-21T18:43:08.801Z,10.73
2019-03-21T18:45:40.375Z,10.73
2019-03-21T18:48:08.846Z,10.64
2019-03-21T18:50:37.435Z,10.64
2019-03-21T18:53:31.530Z,10.64
2019-03-21T18:56:05.969Z,10.64
2019-03-21T18:58:35.165Z,10.64
2019-03-21T19:01:16.649Z,10.64
2019-03-21T19:04:08.685Z,10.64
2019-03-21T19:06:37.133Z,10.64
2019-03-21T19:09:07.481Z,10.48
2019-03-21T19:11:39.522Z,10.47
2019-03-21T19:14:07.915Z,10.52
2019-03-21T19:16:36.883Z,10.53
2019-03-21T19:19:05.291Z,10.44
2019-03-21T19:24:01.050Z,10.47
2019-03-21T19:26:29.448Z,10.52
2019-03-21T19:28:57.874Z,10.52
2019-03-21T19:31:27.353Z,10.49
2019-03-21T19:33:55.768Z,10.52
2019-03-21T19:36:26.648Z,10.43
2019-03-21T19:38:55.054Z,10.42
2019-03-21T19:41:27.254Z,10.49
2019-03-21T19:43:54.927Z,10.50
2019-03-21T19:46:24.311Z,10.48
2019-03-21T19:48:52.732Z,10.39
2019-03-21T19:51:21.185Z,10.39
2019-03-21T19:53:49.576Z,10.33
2019-03-21T19:56:17.981Z,10.36
2019-03-21T19:58:46.413Z,10.38
2019-03-21T20:01:14.853Z,10.38
2019-03-21T20:03:43.256Z,10.38
2019-03-21T20:06:11.702Z,10.35
2019-03-21T20:08:40.149Z,10.35
2019-03-21T20:11:08.656Z,10.30
2019-03-21T20:13:37.150Z,10.27
2019-03-21T20:16:07.910Z,10.27
2019-03-21T20:18:46.986Z,10.27
2019-03-21T20:21:15.389Z,10.27
2019-03-21T20:23:46.384Z,10.34
2019-03-21T20:26:17.512Z,10.34
2019-03-21T20:28:46.020Z,10.31
2019-03-21T20:31:14.962Z,10.19
2019-03-21T20:33:43.384Z,10.19
2019-03-21T20:36:31.171Z,10.20
2019-03-21T20:38:59.960Z,10.20
2019-03-21T20:41:29.367Z,10.24
2019-03-21T20:43:57.826Z,10.22
2019-03-21T20:46:26.224Z,10.11
2019-03-21T20:48:54.592Z,10.20
2019-03-21T20:51:22.982Z,10.23
2019-03-21T20:53:51.391Z,10.17
2019-03-21T20:56:19.809Z,10.21
2019-03-21T20:58:48.198Z,10.21
2019-03-21T21:01:16.626Z,10.24
2019-03-21T21:03:45.129Z,10.27
2019-03-21T21:06:17.018Z,10.27
2019-03-21T21:08:45.783Z,10.24
2019-03-21T21:11:17.706Z,10.12
2019-03-21T21:13:48.093Z,10.12
2019-03-21T21:16:16.566Z,10.19
2019-03-21T21:18:45.790Z,10.16
2019-03-21T21:21:14.233Z,10.16
2019-03-21T21:23:42.666Z,10.11
2019-03-21T21:26:11.076Z,10.19
2019-03-21T21:28:39.643Z,10.16
2019-03-21T21:31:08.137Z,10.11
2019-03-21T21:33:37.212Z,10.12
2019-03-21T21:36:05.716Z,10.12
2019-03-21T21:38:34.572Z,10.12
2019-03-21T21:41:16.121Z,10.12
2019-03-21T21:43:44.882Z,10.02
2019-03-21T21:46:48.490Z,10.02
2019-03-21T21:49:16.908Z,10.02
2019-03-21T21:51:45.319Z,9.98
2019-03-21T21:54:13.895Z,9.90
2019-03-21T21:56:42.373Z,9.81
2019-03-21T21:59:11.702Z,9.82
2019-03-21T22:01:40.244Z,9.88
2019-03-21T22:04:09.027Z,9.82
2019-03-21T22:06:37.447Z,9.88
2019-03-21T22:09:07.106Z,9.82
2019-03-21T22:11:38.046Z,9.82
2019-03-21T22:14:06.509Z,9.76
2019-03-21T22:16:35.358Z,9.76
2019-03-21T22:19:08.002Z,9.74
2019-03-21T22:21:36.077Z,9.78
2019-03-21T22:24:05.547Z,9.76
2019-03-21T22:26:35.351Z,9.73
2019-03-21T22:29:03.741Z,9.73
2019-03-21T22:31:32.149Z,9.73
2019-03-21T22:34:07.006Z,9.66
2019-03-21T22:36:35.513Z,9.65
2019-03-21T22:39:05.464Z,9.65
2019-03-21T22:41:33.910Z,9.65
2019-03-21T22:44:02.334Z,9.73
2019-03-21T22:46:33.465Z,9.77
2019-03-21T22:49:02.120Z,9.70
2019-03-21T22:52:05.502Z,9.73
2019-03-21T22:54:33.928Z,9.73
2019-03-21T22:57:02.332Z,9.72
2019-03-21T22:59:31.077Z,9.76
2019-03-21T23:01:59.517Z,9.76
2019-03-21T23:04:42.153Z,9.76
2019-03-21T23:08:13.354Z,9.76
2019-03-21T23:10:41.718Z,9.76
2019-03-21T23:13:10.157Z,9.64
2019-03-21T23:15:39.056Z,9.64
2019-03-21T23:18:07.497Z,9.65
2019-03-21T23:20:38.882Z,9.61
2019-03-21T23:23:18.519Z,9.68
2019-03-21T23:25:48.931Z,9.68
2019-03-21T23:28:20.614Z,9.57
2019-03-21T23:30:49.046Z,9.61
2019-03-21T23:33:17.453Z,9.61
2019-03-21T23:35:46.865Z,9.63
2019-03-21T23:38:16.176Z,9.60
2019-03-21T23:40:44.790Z,9.59
2019-03-21T23:43:15.869Z,9.59
2019-03-21T23:45:46.638Z,9.59
2019-03-21T23:48:15.192Z,9.62
2019-03-21T23:51:50.020Z,9.62
2019-03-21T23:54:18.455Z,9.62
2019-03-21T23:56:49.709Z,9.52
2019-03-21T23:59:20.826Z,9.58
